sensor_id;sensor_type;location;lat;lon;timestamp;P1;durP1;ratioP1;P2;durP2;ratioP2
36441;SDS011;64346;50.820;16.274;2022-12-07T00:01:28;3.78;;;1.65;;
36441;SDS011;64346;50.820;16.274;2022-12-07T00:03:59;3.30;;;1.38;;
36441;SDS011;64346;50.820;16.274;2022-12-07T00:06:30;3.08;;;1.40;;
36441;SDS011;64346;50.820;16.274;2022-12-07T00:09:10;4.90;;;1.70;;
36441;SDS011;64346;50.820;16.274;2022-12-07T00:11:40;3.10;;;1.48;;
36441;SDS011;64346;50.820;16.274;2022-12-07T00:14:10;3.88;;;1.58;;
36441;SDS011;64346;50.820;16.274;2022-12-07T00:16:39;1.73;;;1.30;;
36441;SDS011;64346;50.820;16.274;2022-12-07T00:19:07;1.48;;;1.33;;
36441;SDS011;64346;50.820;16.274;2022-12-07T00:21:35;1.25;;;1.02;;
36441;SDS011;64346;50.820;16.274;2022-12-07T00:24:03;1.52;;;1.20;;
36441;SDS011;64346;50.820;16.274;2022-12-07T00:26:36;0.82;;;0.80;;
36441;SDS011;64346;50.820;16.274;2022-12-07T00:29:09;1.50;;;1.08;;
36441;SDS011;64346;50.820;16.274;2022-12-07T00:31:43;1.70;;;1.23;;
36441;SDS011;64346;50.820;16.274;2022-12-07T00:34:16;1.33;;;0.88;;
36441;SDS011;64346;50.820;16.274;2022-12-07T00:36:45;0.93;;;0.70;;
36441;SDS011;64346;50.820;16.274;2022-12-07T00:39:13;1.35;;;0.80;;
36441;SDS011;64346;50.820;16.274;2022-12-07T00:41:41;2.25;;;1.00;;
36441;SDS011;64346;50.820;16.274;2022-12-07T00:44:10;2.53;;;1.23;;
36441;SDS011;64346;50.820;16.274;2022-12-07T00:46:42;1.30;;;0.68;;
36441;SDS011;64346;50.820;16.274;2022-12-07T00:49:12;0.80;;;0.70;;
36441;SDS011;64346;50.820;16.274;2022-12-07T00:51:42;0.70;;;0.70;;
36441;SDS011;64346;50.820;16.274;2022-12-07T00:54:09;0.82;;;0.70;;
36441;SDS011;64346;50.820;16.274;2022-12-07T00:56:37;1.65;;;0.98;;
36441;SDS011;64346;50.820;16.274;2022-12-07T00:59:10;1.67;;;0.90;;
36441;SDS011;64346;50.820;16.274;2022-12-07T01:01:39;1.57;;;0.70;;
36441;SDS011;64346;50.820;16.274;2022-12-07T01:04:07;1.52;;;0.80;;
36441;SDS011;64346;50.820;16.274;2022-12-07T01:06:36;0.77;;;0.63;;
36441;SDS011;64346;50.820;16.274;2022-12-07T01:09:04;1.85;;;0.80;;
36441;SDS011;64346;50.820;16.274;2022-12-07T01:11:34;1.58;;;1.00;;
36441;SDS011;64346;50.820;16.274;2022-12-07T01:14:04;1.15;;;0.70;;
36441;SDS011;64346;50.820;16.274;2022-12-07T01:16:34;1.33;;;1.00;;
36441;SDS011;64346;50.820;16.274;2022-12-07T01:19:01;2.33;;;1.20;;
36441;SDS011;64346;50.820;16.274;2022-12-07T01:21:30;0.85;;;0.70;;
36441;SDS011;64346;50.820;16.274;2022-12-07T01:23:59;0.75;;;0.75;;
36441;SDS011;64346;50.820;16.274;2022-12-07T01:26:29;1.30;;;1.00;;
36441;SDS011;64346;50.820;16.274;2022-12-07T01:28:56;1.38;;;0.77;;
36441;SDS011;64346;50.820;16.274;2022-12-07T01:31:24;1.80;;;1.00;;
36441;SDS011;64346;50.820;16.274;2022-12-07T01:33:54;1.60;;;0.93;;
36441;SDS011;64346;50.820;16.274;2022-12-07T01:36:24;2.13;;;1.05;;
36441;SDS011;64346;50.820;16.274;2022-12-07T01:38:54;1.33;;;1.00;;
36441;SDS011;64346;50.820;16.274;2022-12-07T01:41:26;0.88;;;0.63;;
36441;SDS011;64346;50.820;16.274;2022-12-07T01:44:15;1.25;;;0.90;;
36441;SDS011;64346;50.820;16.274;2022-12-07T01:49:37;2.42;;;0.90;;
36441;SDS011;64346;50.820;16.274;2022-12-07T01:52:12;0.80;;;0.80;;
36441;SDS011;64346;50.820;16.274;2022-12-07T01:55:04;1.08;;;0.70;;
36441;SDS011;64346;50.820;16.274;2022-12-07T01:57:48;1.30;;;0.90;;
36441;SDS011;64346;50.820;16.274;2022-12-07T02:00:17;0.80;;;0.80;;
36441;SDS011;64346;50.820;16.274;2022-12-07T02:02:49;1.70;;;0.88;;
36441;SDS011;64346;50.820;16.274;2022-12-07T02:05:28;1.02;;;0.80;;
36441;SDS011;64346;50.820;16.274;2022-12-07T02:07:55;1.58;;;0.93;;
36441;SDS011;64346;50.820;16.274;2022-12-07T02:10:27;1.42;;;1.00;;
36441;SDS011;64346;50.820;16.274;2022-12-07T02:29:27;0.80;;;0.75;;
36441;SDS011;64346;50.820;16.274;2022-12-07T02:32:18;2.50;;;1.25;;
36441;SDS011;64346;50.820;16.274;2022-12-07T02:35:24;0.90;;;0.60;;
36441;SDS011;64346;50.820;16.274;2022-12-07T02:41:07;2.70;;;0.70;;
36441;SDS011;64346;50.820;16.274;2022-12-07T02:44:07;1.48;;;0.63;;
36441;SDS011;64346;50.820;16.274;2022-12-07T02:46:42;1.23;;;0.80;;
36441;SDS011;64346;50.820;16.274;2022-12-07T02:49:17;0.82;;;0.82;;
36441;SDS011;64346;50.820;16.274;2022-12-07T02:51:46;0.85;;;0.63;;
36441;SDS011;64346;50.820;16.274;2022-12-07T02:54:17;2.08;;;0.70;;
36441;SDS011;64346;50.820;16.274;2022-12-07T03:11:04;0.90;;;0.68;;
36441;SDS011;64346;50.820;16.274;2022-12-07T03:13:25;1.33;;;0.77;;
36441;SDS011;64346;50.820;16.274;2022-12-07T03:16:12;0.60;;;0.60;;
36441;SDS011;64346;50.820;16.274;2022-12-07T03:18:45;0.40;;;0.40;;
36441;SDS011;64346;50.820;16.274;2022-12-07T03:21:26;0.80;;;0.60;;
36441;SDS011;64346;50.820;16.274;2022-12-07T03:23:59;0.70;;;0.70;;
36441;SDS011;64346;50.820;16.274;2022-12-07T03:26:31;0.73;;;0.50;;
36441;SDS011;64346;50.820;16.274;2022-12-07T03:29:05;1.48;;;0.85;;
36441;SDS011;64346;50.820;16.274;2022-12-07T03:31:40;1.05;;;0.70;;
36441;SDS011;64346;50.820;16.274;2022-12-07T03:34:22;0.60;;;0.60;;
36441;SDS011;64346;50.820;16.274;2022-12-07T03:37:05;0.60;;;0.60;;
36441;SDS011;64346;50.820;16.274;2022-12-07T03:39:45;0.60;;;0.60;;
36441;SDS011;64346;50.820;16.274;2022-12-07T03:42:18;1.85;;;0.80;;
36441;SDS011;64346;50.820;16.274;2022-12-07T03:44:45;0.75;;;0.75;;
36441;SDS011;64346;50.820;16.274;2022-12-07T03:47:20;1.15;;;1.00;;
36441;SDS011;64346;50.820;16.274;2022-12-07T03:50:21;1.45;;;0.98;;
36441;SDS011;64346;50.820;16.274;2022-12-07T03:52:47;3.03;;;1.40;;
36441;SDS011;64346;50.820;16.274;2022-12-07T03:58:02;1.20;;;1.10;;
36441;SDS011;64346;50.820;16.274;2022-12-07T04:00:38;1.60;;;1.10;;
36441;SDS011;64346;50.820;16.274;2022-12-07T04:03:10;3.50;;;1.60;;
36441;SDS011;64346;50.820;16.274;2022-12-07T04:05:38;1.80;;;1.23;;
36441;SDS011;64346;50.820;16.274;2022-12-07T04:08:06;0.90;;;0.80;;
36441;SDS011;64346;50.820;16.274;2022-12-07T04:10:33;1.63;;;1.23;;
36441;SDS011;64346;50.820;16.274;2022-12-07T04:13:03;1.60;;;1.10;;
36441;SDS011;64346;50.820;16.274;2022-12-07T04:15:31;2.83;;;1.50;;
36441;SDS011;64346;50.820;16.274;2022-12-07T04:18:00;2.00;;;1.00;;
36441;SDS011;64346;50.820;16.274;2022-12-07T04:20:28;1.83;;;1.00;;
36441;SDS011;64346;50.820;16.274;2022-12-07T04:22:55;3.47;;;1.52;;
36441;SDS011;64346;50.820;16.274;2022-12-07T04:25:23;2.17;;;1.02;;
36441;SDS011;64346;50.820;16.274;2022-12-07T04:27:52;2.33;;;1.55;;
36441;SDS011;64346;50.820;16.274;2022-12-07T04:30:20;2.30;;;1.23;;
36441;SDS011;64346;50.820;16.274;2022-12-07T04:32:47;2.88;;;1.20;;
36441;SDS011;64346;50.820;16.274;2022-12-07T04:35:14;1.30;;;1.02;;
36441;SDS011;64346;50.820;16.274;2022-12-07T04:37:43;2.40;;;1.10;;
36441;SDS011;64346;50.820;16.274;2022-12-07T04:40:13;2.63;;;1.20;;
36441;SDS011;64346;50.820;16.274;2022-12-07T04:42:43;2.30;;;1.10;;
36441;SDS011;64346;50.820;16.274;2022-12-07T04:45:10;1.52;;;1.20;;
36441;SDS011;64346;50.820;16.274;2022-12-07T04:47:39;1.35;;;1.00;;
36441;SDS011;64346;50.820;16.274;2022-12-07T04:50:07;2.67;;;1.50;;
36441;SDS011;64346;50.820;16.274;2022-12-07T04:52:35;2.67;;;1.67;;
36441;SDS011;64346;50.820;16.274;2022-12-07T04:55:03;4.00;;;2.28;;
36441;SDS011;64346;50.820;16.274;2022-12-07T04:57:30;3.00;;;1.52;;
36441;SDS011;64346;50.820;16.274;2022-12-07T04:59:57;3.53;;;2.00;;
36441;SDS011;64346;50.820;16.274;2022-12-07T05:02:25;3.80;;;2.13;;
36441;SDS011;64346;50.820;16.274;2022-12-07T05:04:55;3.40;;;2.17;;
36441;SDS011;64346;50.820;16.274;2022-12-07T05:07:22;3.38;;;2.30;;
36441;SDS011;64346;50.820;16.274;2022-12-07T05:09:49;5.78;;;2.70;;
36441;SDS011;64346;50.820;16.274;2022-12-07T05:12:16;4.75;;;2.75;;
36441;SDS011;64346;50.820;16.274;2022-12-07T05:14:44;6.20;;;3.22;;
36441;SDS011;64346;50.820;16.274;2022-12-07T05:17:13;8.27;;;3.75;;
36441;SDS011;64346;50.820;16.274;2022-12-07T05:19:43;7.80;;;4.25;;
36441;SDS011;64346;50.820;16.274;2022-12-07T05:22:13;12.68;;;6.50;;
36441;SDS011;64346;50.820;16.274;2022-12-07T05:24:40;10.70;;;5.38;;
36441;SDS011;64346;50.820;16.274;2022-12-07T05:27:10;10.50;;;5.50;;
36441;SDS011;64346;50.820;16.274;2022-12-07T05:29:39;11.75;;;5.72;;
36441;SDS011;64346;50.820;16.274;2022-12-07T05:32:06;9.38;;;4.90;;
36441;SDS011;64346;50.820;16.274;2022-12-07T05:34:34;11.07;;;5.55;;
36441;SDS011;64346;50.820;16.274;2022-12-07T05:37:01;10.02;;;5.15;;
36441;SDS011;64346;50.820;16.274;2022-12-07T05:39:31;11.00;;;5.57;;
36441;SDS011;64346;50.820;16.274;2022-12-07T05:41:58;12.32;;;6.25;;
36441;SDS011;64346;50.820;16.274;2022-12-07T05:44:25;12.38;;;6.82;;
36441;SDS011;64346;50.820;16.274;2022-12-07T05:46:52;12.25;;;6.68;;
36441;SDS011;64346;50.820;16.274;2022-12-07T05:49:22;10.60;;;5.68;;
36441;SDS011;64346;50.820;16.274;2022-12-07T05:51:49;14.32;;;7.10;;
36441;SDS011;64346;50.820;16.274;2022-12-07T05:54:17;14.80;;;7.30;;
36441;SDS011;64346;50.820;16.274;2022-12-07T05:56:44;15.07;;;7.38;;
36441;SDS011;64346;50.820;16.274;2022-12-07T05:59:12;14.18;;;7.95;;
36441;SDS011;64346;50.820;16.274;2022-12-07T06:01:39;14.55;;;8.10;;
36441;SDS011;64346;50.820;16.274;2022-12-07T06:04:06;17.52;;;9.75;;
36441;SDS011;64346;50.820;16.274;2022-12-07T06:06:34;31.55;;;18.05;;
36441;SDS011;64346;50.820;16.274;2022-12-07T06:09:04;18.00;;;10.00;;
36441;SDS011;64346;50.820;16.274;2022-12-07T06:11:31;17.33;;;9.52;;
36441;SDS011;64346;50.820;16.274;2022-12-07T06:13:58;16.42;;;8.88;;
36441;SDS011;64346;50.820;16.274;2022-12-07T06:16:25;19.27;;;9.60;;
36441;SDS011;64346;50.820;16.274;2022-12-07T06:18:55;15.88;;;8.63;;
36441;SDS011;64346;50.820;16.274;2022-12-07T06:21:25;16.70;;;9.48;;
36441;SDS011;64346;50.820;16.274;2022-12-07T06:23:52;17.77;;;10.55;;
36441;SDS011;64346;50.820;16.274;2022-12-07T06:26:20;17.70;;;10.23;;
36441;SDS011;64346;50.820;16.274;2022-12-07T06:28:48;19.60;;;10.82;;
36441;SDS011;64346;50.820;16.274;2022-12-07T06:31:15;16.85;;;9.48;;
36441;SDS011;64346;50.820;16.274;2022-12-07T06:33:47;17.65;;;9.30;;
36441;SDS011;64346;50.820;16.274;2022-12-07T06:36:15;18.02;;;9.25;;
36441;SDS011;64346;50.820;16.274;2022-12-07T06:38:42;16.20;;;8.60;;
36441;SDS011;64346;50.820;16.274;2022-12-07T06:41:12;13.52;;;7.97;;
36441;SDS011;64346;50.820;16.274;2022-12-07T06:43:39;13.30;;;7.70;;
36441;SDS011;64346;50.820;16.274;2022-12-07T06:46:06;14.13;;;8.02;;
36441;SDS011;64346;50.820;16.274;2022-12-07T06:48:37;13.93;;;8.02;;
36441;SDS011;64346;50.820;16.274;2022-12-07T06:51:04;20.23;;;11.80;;
36441;SDS011;64346;50.820;16.274;2022-12-07T06:53:31;19.05;;;11.25;;
36441;SDS011;64346;50.820;16.274;2022-12-07T06:56:01;16.48;;;8.45;;
36441;SDS011;64346;50.820;16.274;2022-12-07T06:58:33;13.68;;;7.07;;
36441;SDS011;64346;50.820;16.274;2022-12-07T07:01:01;13.88;;;7.40;;
36441;SDS011;64346;50.820;16.274;2022-12-07T07:03:28;14.15;;;7.35;;
36441;SDS011;64346;50.820;16.274;2022-12-07T07:05:55;14.27;;;7.78;;
36441;SDS011;64346;50.820;16.274;2022-12-07T07:08:25;14.35;;;7.88;;
36441;SDS011;64346;50.820;16.274;2022-12-07T07:10:52;14.10;;;7.75;;
36441;SDS011;64346;50.820;16.274;2022-12-07T07:13:22;14.27;;;7.45;;
36441;SDS011;64346;50.820;16.274;2022-12-07T07:15:49;13.50;;;7.75;;
36441;SDS011;64346;50.820;16.274;2022-12-07T07:18:16;14.10;;;7.60;;
36441;SDS011;64346;50.820;16.274;2022-12-07T07:20:43;15.38;;;8.25;;
36441;SDS011;64346;50.820;16.274;2022-12-07T07:23:13;14.98;;;7.60;;
36441;SDS011;64346;50.820;16.274;2022-12-07T07:25:43;14.57;;;8.43;;
36441;SDS011;64346;50.820;16.274;2022-12-07T07:28:11;15.75;;;8.18;;
36441;SDS011;64346;50.820;16.274;2022-12-07T07:30:38;15.07;;;8.20;;
36441;SDS011;64346;50.820;16.274;2022-12-07T07:33:05;15.48;;;8.00;;
36441;SDS011;64346;50.820;16.274;2022-12-07T07:35:33;16.30;;;8.18;;
36441;SDS011;64346;50.820;16.274;2022-12-07T07:38:06;13.90;;;6.90;;
36441;SDS011;64346;50.820;16.274;2022-12-07T07:40:34;13.95;;;7.68;;
36441;SDS011;64346;50.820;16.274;2022-12-07T07:43:02;16.15;;;8.15;;
36441;SDS011;64346;50.820;16.274;2022-12-07T07:45:31;13.88;;;6.85;;
36441;SDS011;64346;50.820;16.274;2022-12-07T07:47:59;13.27;;;6.15;;
36441;SDS011;64346;50.820;16.274;2022-12-07T07:50:26;11.70;;;5.90;;
36441;SDS011;64346;50.820;16.274;2022-12-07T07:52:54;11.27;;;6.38;;
36441;SDS011;64346;50.820;16.274;2022-12-07T07:55:25;10.95;;;5.85;;
36441;SDS011;64346;50.820;16.274;2022-12-07T07:57:52;11.35;;;5.43;;
36441;SDS011;64346;50.820;16.274;2022-12-07T08:00:23;12.50;;;5.75;;
36441;SDS011;64346;50.820;16.274;2022-12-07T08:02:50;13.07;;;5.78;;
36441;SDS011;64346;50.820;16.274;2022-12-07T08:05:17;11.35;;;5.80;;
36441;SDS011;64346;50.820;16.274;2022-12-07T08:07:45;9.73;;;4.85;;
36441;SDS011;64346;50.820;16.274;2022-12-07T08:10:17;10.15;;;4.60;;
36441;SDS011;64346;50.820;16.274;2022-12-07T08:12:45;8.75;;;4.78;;
36441;SDS011;64346;50.820;16.274;2022-12-07T08:15:12;8.02;;;4.25;;
36441;SDS011;64346;50.820;16.274;2022-12-07T08:17:42;9.73;;;4.22;;
36441;SDS011;64346;50.820;16.274;2022-12-07T08:20:09;8.15;;;4.55;;
36441;SDS011;64346;50.820;16.274;2022-12-07T08:22:41;7.22;;;4.00;;
36441;SDS011;64346;50.820;16.274;2022-12-07T08:25:08;6.85;;;3.65;;
36441;SDS011;64346;50.820;16.274;2022-12-07T08:27:38;6.93;;;3.50;;
36441;SDS011;64346;50.820;16.274;2022-12-07T08:30:06;8.38;;;4.32;;
36441;SDS011;64346;50.820;16.274;2022-12-07T08:32:33;6.63;;;3.00;;
36441;SDS011;64346;50.820;16.274;2022-12-07T08:35:03;7.40;;;3.78;;
36441;SDS011;64346;50.820;16.274;2022-12-07T08:37:34;7.38;;;4.00;;
36441;SDS011;64346;50.820;16.274;2022-12-07T08:40:01;7.80;;;3.67;;
36441;SDS011;64346;50.820;16.274;2022-12-07T08:42:29;8.13;;;4.20;;
36441;SDS011;64346;50.820;16.274;2022-12-07T08:44:56;10.25;;;5.45;;
36441;SDS011;64346;50.820;16.274;2022-12-07T08:47:24;5.70;;;3.15;;
36441;SDS011;64346;50.820;16.274;2022-12-07T08:49:52;6.57;;;2.90;;
36441;SDS011;64346;50.820;16.274;2022-12-07T08:52:20;5.38;;;3.10;;
36441;SDS011;64346;50.820;16.274;2022-12-07T08:54:50;8.48;;;3.67;;
36441;SDS011;64346;50.820;16.274;2022-12-07T08:57:17;7.97;;;3.75;;
36441;SDS011;64346;50.820;16.274;2022-12-07T08:59:44;6.75;;;3.35;;
36441;SDS011;64346;50.820;16.274;2022-12-07T09:02:12;6.50;;;3.80;;
36441;SDS011;64346;50.820;16.274;2022-12-07T09:04:39;8.02;;;4.22;;
36441;SDS011;64346;50.820;16.274;2022-12-07T09:07:09;8.68;;;4.28;;
36441;SDS011;64346;50.820;16.274;2022-12-07T09:09:36;9.20;;;4.40;;
36441;SDS011;64346;50.820;16.274;2022-12-07T09:12:04;11.50;;;5.32;;
36441;SDS011;64346;50.820;16.274;2022-12-07T09:14:35;10.70;;;4.88;;
36441;SDS011;64346;50.820;16.274;2022-12-07T09:17:10;7.82;;;4.30;;
36441;SDS011;64346;50.820;16.274;2022-12-07T09:19:41;8.85;;;4.00;;
36441;SDS011;64346;50.820;16.274;2022-12-07T09:22:08;7.07;;;3.83;;
36441;SDS011;64346;50.820;16.274;2022-12-07T09:24:36;7.93;;;3.53;;
36441;SDS011;64346;50.820;16.274;2022-12-07T09:27:05;8.70;;;3.80;;
36441;SDS011;64346;50.820;16.274;2022-12-07T09:29:32;6.63;;;3.50;;
36441;SDS011;64346;50.820;16.274;2022-12-07T09:32:00;6.15;;;3.53;;
36441;SDS011;64346;50.820;16.274;2022-12-07T09:34:37;7.10;;;3.78;;
36441;SDS011;64346;50.820;16.274;2022-12-07T09:37:04;8.77;;;4.43;;
36441;SDS011;64346;50.820;16.274;2022-12-07T09:39:34;8.48;;;3.70;;
36441;SDS011;64346;50.820;16.274;2022-12-07T09:42:37;6.63;;;3.58;;
36441;SDS011;64346;50.820;16.274;2022-12-07T09:45:04;8.50;;;3.53;;
36441;SDS011;64346;50.820;16.274;2022-12-07T09:47:36;8.30;;;3.63;;
36441;SDS011;64346;50.820;16.274;2022-12-07T09:50:04;7.05;;;3.90;;
36441;SDS011;64346;50.820;16.274;2022-12-07T09:52:38;8.85;;;3.70;;
36441;SDS011;64346;50.820;16.274;2022-12-07T09:55:13;8.80;;;4.00;;
36441;SDS011;64346;50.820;16.274;2022-12-07T09:57:45;7.75;;;3.30;;
36441;SDS011;64346;50.820;16.274;2022-12-07T10:00:16;7.97;;;3.88;;
36441;SDS011;64346;50.820;16.274;2022-12-07T10:02:55;7.55;;;3.53;;
36441;SDS011;64346;50.820;16.274;2022-12-07T10:05:25;6.55;;;3.13;;
36441;SDS011;64346;50.820;16.274;2022-12-07T10:08:02;7.65;;;3.20;;
36441;SDS011;64346;50.820;16.274;2022-12-07T10:10:31;6.00;;;3.20;;
36441;SDS011;64346;50.820;16.274;2022-12-07T10:13:07;6.22;;;3.45;;
36441;SDS011;64346;50.820;16.274;2022-12-07T10:23:40;6.63;;;3.38;;
36441;SDS011;64346;50.820;16.274;2022-12-07T10:34:43;6.43;;;3.13;;
36441;SDS011;64346;50.820;16.274;2022-12-07T10:37:18;11.45;;;5.25;;
36441;SDS011;64346;50.820;16.274;2022-12-07T10:39:52;6.25;;;3.40;;
36441;SDS011;64346;50.820;16.274;2022-12-07T10:47:44;13.82;;;5.85;;
36441;SDS011;64346;50.820;16.274;2022-12-07T11:15:26;13.98;;;6.32;;
36441;SDS011;64346;50.820;16.274;2022-12-07T11:18:25;9.63;;;4.68;;
36441;SDS011;64346;50.820;16.274;2022-12-07T11:29:06;10.55;;;4.82;;
36441;SDS011;64346;50.820;16.274;2022-12-07T11:37:02;9.40;;;4.22;;
36441;SDS011;64346;50.820;16.274;2022-12-07T11:39:35;9.88;;;4.28;;
36441;SDS011;64346;50.820;16.274;2022-12-07T11:42:10;9.05;;;3.97;;
36441;SDS011;64346;50.820;16.274;2022-12-07T11:47:54;8.35;;;4.20;;
36441;SDS011;64346;50.820;16.274;2022-12-07T11:50:41;8.40;;;4.00;;
36441;SDS011;64346;50.820;16.274;2022-12-07T11:53:23;9.32;;;4.50;;
36441;SDS011;64346;50.820;16.274;2022-12-07T12:04:01;12.77;;;5.80;;
36441;SDS011;64346;50.820;16.274;2022-12-07T12:06:29;12.93;;;5.72;;
36441;SDS011;64346;50.820;16.274;2022-12-07T12:09:02;9.50;;;5.15;;
36441;SDS011;64346;50.820;16.274;2022-12-07T12:15:51;10.65;;;4.80;;
36441;SDS011;64346;50.820;16.274;2022-12-07T12:21:22;10.10;;;4.10;;
36441;SDS011;64346;50.820;16.274;2022-12-07T12:24:02;7.15;;;3.42;;
36441;SDS011;64346;50.820;16.274;2022-12-07T12:26:37;7.03;;;2.70;;
36441;SDS011;64346;50.820;16.274;2022-12-07T12:29:27;5.90;;;2.97;;
36441;SDS011;64346;50.820;16.274;2022-12-07T12:34:40;4.57;;;2.25;;
36441;SDS011;64346;50.820;16.274;2022-12-07T12:42:48;5.30;;;2.83;;
36441;SDS011;64346;50.820;16.274;2022-12-07T12:45:25;6.32;;;3.50;;
36441;SDS011;64346;50.820;16.274;2022-12-07T12:47:57;5.53;;;2.75;;
36441;SDS011;64346;50.820;16.274;2022-12-07T12:50:33;5.93;;;2.53;;
36441;SDS011;64346;50.820;16.274;2022-12-07T12:53:05;5.90;;;2.60;;
36441;SDS011;64346;50.820;16.274;2022-12-07T12:58:34;5.78;;;2.70;;
36441;SDS011;64346;50.820;16.274;2022-12-07T13:06:57;4.85;;;2.33;;
36441;SDS011;64346;50.820;16.274;2022-12-07T13:09:28;3.90;;;2.17;;
36441;SDS011;64346;50.820;16.274;2022-12-07T13:12:11;5.50;;;2.45;;
36441;SDS011;64346;50.820;16.274;2022-12-07T13:14:42;4.60;;;2.15;;
36441;SDS011;64346;50.820;16.274;2022-12-07T13:20:00;4.82;;;2.45;;
36441;SDS011;64346;50.820;16.274;2022-12-07T13:25:03;5.50;;;2.53;;
36441;SDS011;64346;50.820;16.274;2022-12-07T13:27:37;4.25;;;1.80;;
36441;SDS011;64346;50.820;16.274;2022-12-07T13:30:14;7.40;;;2.40;;
36441;SDS011;64346;50.820;16.274;2022-12-07T13:32:56;5.03;;;2.20;;
36441;SDS011;64346;50.820;16.274;2022-12-07T13:35:29;4.78;;;1.90;;
36441;SDS011;64346;50.820;16.274;2022-12-07T13:37:59;4.88;;;2.28;;
36441;SDS011;64346;50.820;16.274;2022-12-07T13:40:31;4.90;;;2.38;;
36441;SDS011;64346;50.820;16.274;2022-12-07T13:43:03;5.90;;;2.55;;
36441;SDS011;64346;50.820;16.274;2022-12-07T13:45:32;6.97;;;3.03;;
36441;SDS011;64346;50.820;16.274;2022-12-07T13:48:02;6.47;;;2.45;;
36441;SDS011;64346;50.820;16.274;2022-12-07T13:50:31;7.57;;;2.70;;
36441;SDS011;64346;50.820;16.274;2022-12-07T13:53:01;7.30;;;2.47;;
36441;SDS011;64346;50.820;16.274;2022-12-07T13:55:43;7.88;;;2.92;;
36441;SDS011;64346;50.820;16.274;2022-12-07T13:58:22;5.03;;;2.30;;
36441;SDS011;64346;50.820;16.274;2022-12-07T14:00:50;5.68;;;2.17;;
36441;SDS011;64346;50.820;16.274;2022-12-07T14:05:46;4.97;;;2.28;;
36441;SDS011;64346;50.820;16.274;2022-12-07T14:08:29;5.18;;;2.00;;
36441;SDS011;64346;50.820;16.274;2022-12-07T14:10:57;3.35;;;2.05;;
36441;SDS011;64346;50.820;16.274;2022-12-07T14:15:55;6.75;;;2.10;;
36441;SDS011;64346;50.820;16.274;2022-12-07T14:18:34;8.75;;;3.10;;
36441;SDS011;64346;50.820;16.274;2022-12-07T14:21:21;5.10;;;2.38;;
36441;SDS011;64346;50.820;16.274;2022-12-07T14:24:10;7.88;;;3.17;;
36441;SDS011;64346;50.820;16.274;2022-12-07T14:26:38;9.38;;;4.18;;
36441;SDS011;64346;50.820;16.274;2022-12-07T14:31:52;9.27;;;3.90;;
36441;SDS011;64346;50.820;16.274;2022-12-07T14:34:21;10.55;;;4.30;;
36441;SDS011;64346;50.820;16.274;2022-12-07T14:36:49;11.45;;;4.40;;
36441;SDS011;64346;50.820;16.274;2022-12-07T14:39:19;13.15;;;5.50;;
36441;SDS011;64346;50.820;16.274;2022-12-07T14:41:46;13.93;;;6.75;;
36441;SDS011;64346;50.820;16.274;2022-12-07T14:44:16;14.32;;;6.07;;
36441;SDS011;64346;50.820;16.274;2022-12-07T14:46:56;13.10;;;5.65;;
36441;SDS011;64346;50.820;16.274;2022-12-07T14:49:43;10.00;;;4.85;;
36441;SDS011;64346;50.820;16.274;2022-12-07T14:52:13;11.88;;;4.90;;
36441;SDS011;64346;50.820;16.274;2022-12-07T14:55:13;10.35;;;5.30;;
36441;SDS011;64346;50.820;16.274;2022-12-07T14:57:47;11.68;;;4.75;;
36441;SDS011;64346;50.820;16.274;2022-12-07T15:00:14;11.88;;;5.50;;
36441;SDS011;64346;50.820;16.274;2022-12-07T15:02:43;13.13;;;5.90;;
36441;SDS011;64346;50.820;16.274;2022-12-07T15:05:14;21.38;;;9.45;;
36441;SDS011;64346;50.820;16.274;2022-12-07T15:07:43;15.57;;;7.13;;
36441;SDS011;64346;50.820;16.274;2022-12-07T15:12:55;14.10;;;6.68;;
36441;SDS011;64346;50.820;16.274;2022-12-07T15:15:23;14.80;;;7.50;;
36441;SDS011;64346;50.820;16.274;2022-12-07T15:17:56;14.63;;;7.65;;
36441;SDS011;64346;50.820;16.274;2022-12-07T15:20:23;17.88;;;8.38;;
36441;SDS011;64346;50.820;16.274;2022-12-07T15:22:51;17.77;;;8.80;;
36441;SDS011;64346;50.820;16.274;2022-12-07T15:25:18;16.50;;;8.20;;
36441;SDS011;64346;50.820;16.274;2022-12-07T15:27:45;15.48;;;8.13;;
36441;SDS011;64346;50.820;16.274;2022-12-07T15:30:13;14.52;;;8.13;;
36441;SDS011;64346;50.820;16.274;2022-12-07T15:32:42;15.75;;;7.60;;
36441;SDS011;64346;50.820;16.274;2022-12-07T15:35:10;11.90;;;6.40;;
36441;SDS011;64346;50.820;16.274;2022-12-07T15:37:37;11.50;;;5.72;;
36441;SDS011;64346;50.820;16.274;2022-12-07T15:40:05;12.57;;;6.05;;
36441;SDS011;64346;50.820;16.274;2022-12-07T15:42:34;13.02;;;5.95;;
36441;SDS011;64346;50.820;16.274;2022-12-07T15:45:03;11.32;;;5.97;;
36441;SDS011;64346;50.820;16.274;2022-12-07T15:47:33;12.20;;;5.68;;
36441;SDS011;64346;50.820;16.274;2022-12-07T15:50:25;10.82;;;5.97;;
36441;SDS011;64346;50.820;16.274;2022-12-07T15:52:52;10.80;;;4.63;;
36441;SDS011;64346;50.820;16.274;2022-12-07T15:55:20;9.02;;;3.60;;
36441;SDS011;64346;50.820;16.274;2022-12-07T15:57:47;8.35;;;3.30;;
36441;SDS011;64346;50.820;16.274;2022-12-07T16:00:14;7.88;;;3.30;;
36441;SDS011;64346;50.820;16.274;2022-12-07T16:02:42;7.15;;;2.92;;
36441;SDS011;64346;50.820;16.274;2022-12-07T16:05:10;6.60;;;2.70;;
36441;SDS011;64346;50.820;16.274;2022-12-07T16:07:37;5.95;;;2.42;;
36441;SDS011;64346;50.820;16.274;2022-12-07T16:10:05;18.90;;;10.43;;
36441;SDS011;64346;50.820;16.274;2022-12-07T16:12:34;10.73;;;4.60;;
36441;SDS011;64346;50.820;16.274;2022-12-07T16:15:04;7.38;;;3.00;;
36441;SDS011;64346;50.820;16.274;2022-12-07T16:17:34;7.88;;;3.55;;
36441;SDS011;64346;50.820;16.274;2022-12-07T16:20:02;8.52;;;3.15;;
36441;SDS011;64346;50.820;16.274;2022-12-07T16:22:31;9.23;;;4.13;;
36441;SDS011;64346;50.820;16.274;2022-12-07T16:25:00;7.55;;;3.22;;
36441;SDS011;64346;50.820;16.274;2022-12-07T16:27:28;10.05;;;4.15;;
36441;SDS011;64346;50.820;16.274;2022-12-07T16:29:56;11.65;;;5.28;;
36441;SDS011;64346;50.820;16.274;2022-12-07T16:32:25;8.13;;;3.50;;
36441;SDS011;64346;50.820;16.274;2022-12-07T16:34:53;6.82;;;2.85;;
36441;SDS011;64346;50.820;16.274;2022-12-07T16:37:20;6.07;;;3.10;;
36441;SDS011;64346;50.820;16.274;2022-12-07T16:39:47;6.05;;;2.78;;
36441;SDS011;64346;50.820;16.274;2022-12-07T16:42:14;7.13;;;2.83;;
36441;SDS011;64346;50.820;16.274;2022-12-07T16:44:42;6.60;;;3.47;;
36441;SDS011;64346;50.820;16.274;2022-12-07T16:47:09;4.68;;;2.15;;
36441;SDS011;64346;50.820;16.274;2022-12-07T16:49:36;6.53;;;2.88;;
36441;SDS011;64346;50.820;16.274;2022-12-07T16:52:05;8.80;;;3.30;;
36441;SDS011;64346;50.820;16.274;2022-12-07T16:54:47;6.22;;;3.28;;
36441;SDS011;64346;50.820;16.274;2022-12-07T16:57:15;6.03;;;2.45;;
36441;SDS011;64346;50.820;16.274;2022-12-07T16:59:51;7.47;;;2.50;;
36441;SDS011;64346;50.820;16.274;2022-12-07T17:02:21;4.70;;;2.65;;
36441;SDS011;64346;50.820;16.274;2022-12-07T17:04:49;6.80;;;2.90;;
36441;SDS011;64346;50.820;16.274;2022-12-07T17:07:19;6.32;;;2.65;;
36441;SDS011;64346;50.820;16.274;2022-12-07T17:09:47;6.88;;;3.13;;
36441;SDS011;64346;50.820;16.274;2022-12-07T17:12:18;7.03;;;2.70;;
36441;SDS011;64346;50.820;16.274;2022-12-07T17:14:46;8.80;;;3.35;;
36441;SDS011;64346;50.820;16.274;2022-12-07T17:17:13;6.18;;;2.92;;
36441;SDS011;64346;50.820;16.274;2022-12-07T17:19:40;8.88;;;3.60;;
36441;SDS011;64346;50.820;16.274;2022-12-07T17:22:10;23.83;;;11.38;;
36441;SDS011;64346;50.820;16.274;2022-12-07T17:24:38;10.27;;;5.53;;